createdAt,value
2023-09-27T00:01:05.369Z,14.50
2023-09-27T00:03:32.366Z,14.50
2023-09-27T00:05:59.301Z,14.60
2023-09-27T00:08:27.309Z,14.60
2023-09-27T00:10:55.113Z,14.60
2023-09-27T00:13:21.971Z,14.70
2023-09-27T00:15:49.095Z,14.60
2023-09-27T00:18:16.265Z,14.60
2023-09-27T00:20:43.168Z,14.60
2023-09-27T00:23:10.888Z,14.60
2023-09-27T00:25:37.920Z,14.70
2023-09-27T00:28:04.798Z,14.60
2023-09-27T00:30:31.711Z,14.60
2023-09-27T00:32:58.732Z,14.60
2023-09-27T00:35:25.745Z,14.50
2023-09-27T00:37:53.200Z,14.50
2023-09-27T00:40:23.233Z,14.40
2023-09-27T00:42:50.628Z,14.40
2023-09-27T00:45:18.733Z,14.40
2023-09-27T00:47:48.379Z,14.40
2023-09-27T00:50:16.093Z,14.40
2023-09-27T00:52:44.535Z,14.30
2023-09-27T00:55:13.502Z,14.30
2023-09-27T00:57:41.703Z,14.30
2023-09-27T01:00:11.620Z,14.20
2023-09-27T01:02:42.833Z,14.00
2023-09-27T01:05:10.370Z,14.00
2023-09-27T01:07:41.319Z,14.10
2023-09-27T01:10:09.677Z,14.10
2023-09-27T01:12:38.272Z,14.00
2023-09-27T01:15:07.693Z,13.80
2023-09-27T01:17:35.658Z,13.80
2023-09-27T01:20:02.618Z,13.80
2023-09-27T01:22:29.514Z,13.90
2023-09-27T01:24:57.782Z,14.00
2023-09-27T01:27:25.124Z,14.00
2023-09-27T01:29:52.148Z,13.90
2023-09-27T01:32:20.018Z,13.80
2023-09-27T01:34:46.956Z,13.90
2023-09-27T01:37:14.023Z,13.80
2023-09-27T01:39:41.036Z,13.90
2023-09-27T01:42:10.652Z,13.80
2023-09-27T01:44:37.566Z,13.80
2023-09-27T01:47:05.497Z,13.80
2023-09-27T01:49:32.526Z,13.80
2023-09-27T01:51:59.415Z,13.70
2023-09-27T01:54:26.227Z,13.50
2023-09-27T01:56:53.033Z,13.50
2023-09-27T01:59:20.116Z,13.50
2023-09-27T02:01:47.032Z,13.50
2023-09-27T02:04:13.951Z,13.50
2023-09-27T02:06:40.809Z,13.50
2023-09-27T02:09:07.755Z,13.40
2023-09-27T02:11:34.959Z,13.30
2023-09-27T02:14:05.282Z,13.30
2023-09-27T02:16:35.437Z,13.20
2023-09-27T02:19:05.877Z,13.30
2023-09-27T02:21:33.461Z,13.20
2023-09-27T02:24:00.507Z,13.30
2023-09-27T02:26:27.463Z,13.30
2023-09-27T02:28:54.638Z,13.30
2023-09-27T02:31:23.235Z,13.30
2023-09-27T02:33:50.327Z,13.20
2023-09-27T02:36:17.527Z,13.20
2023-09-27T02:38:44.601Z,13.10
2023-09-27T02:41:11.645Z,13.00
2023-09-27T02:43:38.487Z,13.00
2023-09-27T02:46:05.652Z,13.00
2023-09-27T02:48:32.729Z,13.00
2023-09-27T02:50:59.766Z,12.90
2023-09-27T02:53:29.480Z,12.90
2023-09-27T02:55:56.688Z,12.90
2023-09-27T02:58:23.760Z,12.90
2023-09-27T03:00:50.604Z,12.90
2023-09-27T03:03:20.777Z,12.80
2023-09-27T03:05:48.065Z,12.70
2023-09-27T03:08:15.571Z,12.60
2023-09-27T03:10:43.918Z,12.50
2023-09-27T03:13:11.194Z,12.50
2023-09-27T03:15:38.857Z,12.60
2023-09-27T03:18:06.771Z,12.60
2023-09-27T03:20:34.114Z,12.60
2023-09-27T03:23:01.157Z,12.70
2023-09-27T03:25:28.346Z,12.60
2023-09-27T03:27:55.796Z,12.60
2023-09-27T03:30:22.816Z,12.50
2023-09-27T03:32:49.952Z,12.40
2023-09-27T03:35:18.253Z,12.30
2023-09-27T03:37:46.317Z,12.40
2023-09-27T03:40:15.732Z,12.40
2023-09-27T03:42:47.237Z,12.30
2023-09-27T03:45:16.401Z,12.20
2023-09-27T03:47:46.013Z,12.10
2023-09-27T03:50:13.955Z,12.20
2023-09-27T03:52:44.474Z,12.20
2023-09-27T03:55:12.648Z,12.30
2023-09-27T03:57:41.401Z,12.30
2023-09-27T04:00:16.282Z,12.40
2023-09-27T04:02:44.258Z,12.30
2023-09-27T04:05:12.451Z,12.30
2023-09-27T04:07:40.624Z,12.30
2023-09-27T04:10:11.402Z,12.30
2023-09-27T04:12:38.856Z,12.30
2023-09-27T04:15:09.982Z,12.30
2023-09-27T04:17:38.568Z,12.30
2023-09-27T04:20:15.769Z,12.40
2023-09-27T04:22:44.959Z,12.40
2023-09-27T04:25:13.933Z,12.40
2023-09-27T04:27:42.303Z,12.40
2023-09-27T04:30:12.848Z,12.40
2023-09-27T04:32:47.464Z,12.40
2023-09-27T04:35:16.630Z,12.40
2023-09-27T04:37:43.609Z,12.30
2023-09-27T04:40:18.311Z,12.20
2023-09-27T04:42:46.714Z,12.10
2023-09-27T04:45:14.918Z,12.00
2023-09-27T04:47:46.399Z,12.00
2023-09-27T04:50:13.724Z,12.00
2023-09-27T04:52:41.300Z,12.10
2023-09-27T04:55:10.157Z,12.10
2023-09-27T04:57:37.409Z,12.20
2023-09-27T05:00:05.351Z,12.30
2023-09-27T05:02:32.704Z,12.40
2023-09-27T05:04:59.688Z,12.20
2023-09-27T05:07:26.591Z,12.10
2023-09-27T05:09:53.814Z,12.10
2023-09-27T05:12:20.979Z,12.10
2023-09-27T05:14:47.983Z,12.10
2023-09-27T05:17:15.509Z,12.00
2023-09-27T05:19:42.584Z,12.00
2023-09-27T05:22:09.516Z,12.10
2023-09-27T05:24:40.326Z,12.10
2023-09-27T05:27:08.649Z,12.10
2023-09-27T05:29:37.167Z,12.10
2023-09-27T05:32:04.983Z,12.10
2023-09-27T05:34:32.767Z,12.20
2023-09-27T05:37:00.133Z,12.30
2023-09-27T05:39:27.338Z,12.10
2023-09-27T05:41:54.073Z,12.00
2023-09-27T05:44:21.383Z,12.00
2023-09-27T05:46:49.097Z,12.00
2023-09-27T05:49:16.281Z,11.90
2023-09-27T05:51:44.467Z,11.90
2023-09-27T05:54:11.961Z,12.00
2023-09-27T05:56:39.533Z,12.00
2023-09-27T05:59:10.354Z,12.00
2023-09-27T06:01:38.723Z,12.00
2023-09-27T06:04:06.522Z,11.90
2023-09-27T06:06:33.348Z,11.90
2023-09-27T06:09:00.281Z,11.90
2023-09-27T06:11:27.286Z,12.00
2023-09-27T06:13:54.413Z,12.00
2023-09-27T06:16:22.939Z,12.00
2023-09-27T06:18:50.835Z,12.10
2023-09-27T06:21:18.633Z,12.10
2023-09-27T06:23:46.181Z,12.10
2023-09-27T06:26:13.720Z,12.10
2023-09-27T06:28:41.051Z,12.10
2023-09-27T06:31:08.355Z,12.20
2023-09-27T06:33:40.593Z,12.30
2023-09-27T06:36:11.956Z,12.30
2023-09-27T06:38:39.673Z,12.40
2023-09-27T06:41:09.300Z,12.40
2023-09-27T06:43:36.393Z,12.50
2023-09-27T06:46:11.630Z,12.60
2023-09-27T06:48:39.332Z,12.60
2023-09-27T06:51:07.316Z,12.70
2023-09-27T06:53:34.931Z,12.80
2023-09-27T06:56:03.867Z,12.90
2023-09-27T06:58:31.489Z,13.00
2023-09-27T07:00:58.939Z,13.10
2023-09-27T07:03:26.975Z,13.10
2023-09-27T07:05:54.984Z,13.20
2023-09-27T07:08:22.277Z,13.30
2023-09-27T07:10:49.875Z,13.30
2023-09-27T07:13:17.197Z,13.40
2023-09-27T07:15:47.548Z,13.40
2023-09-27T07:18:14.883Z,13.50
2023-09-27T07:20:43.508Z,13.60
2023-09-27T07:23:17.128Z,13.70
2023-09-27T07:25:45.681Z,13.80
2023-09-27T07:28:12.775Z,13.90
2023-09-27T07:30:40.301Z,14.00
2023-09-27T07:33:10.190Z,14.00
2023-09-27T07:35:43.094Z,14.10
2023-09-27T07:38:13.249Z,14.10
2023-09-27T07:40:40.965Z,14.30
2023-09-27T07:43:08.164Z,14.40
2023-09-27T07:45:37.660Z,14.40
2023-09-27T07:48:05.143Z,14.50
2023-09-27T07:50:32.890Z,14.60
2023-09-27T07:53:00.645Z,14.70
2023-09-27T07:55:28.120Z,14.80
2023-09-27T07:57:55.719Z,14.90
2023-09-27T08:00:28.717Z,14.90
2023-09-27T08:02:59.003Z,15.00
2023-09-27T08:05:26.682Z,15.00
2023-09-27T08:07:53.931Z,15.10
2023-09-27T08:10:22.415Z,15.20
2023-09-27T08:12:49.855Z,15.30
2023-09-27T08:15:19.416Z,15.50
2023-09-27T08:17:49.253Z,15.70
2023-09-27T08:20:16.700Z,15.90
2023-09-27T08:22:43.766Z,16.30
2023-09-27T08:25:17.585Z,16.90
2023-09-27T08:27:45.798Z,17.50
2023-09-27T08:30:13.738Z,18.30
2023-09-27T08:32:42.704Z,18.90
2023-09-27T08:35:10.758Z,19.70
2023-09-27T08:37:38.097Z,20.40
2023-09-27T08:40:14.802Z,21.10
2023-09-27T08:42:43.473Z,21.80
2023-09-27T08:45:20.294Z,22.20
2023-09-27T08:47:47.662Z,22.50
2023-09-27T08:50:16.206Z,22.80
2023-09-27T08:52:48.432Z,22.90
2023-09-27T08:55:18.632Z,23.30
2023-09-27T08:57:50.166Z,23.70
2023-09-27T09:00:21.693Z,23.80
2023-09-27T09:02:50.786Z,24.10
2023-09-27T09:05:19.664Z,24.50
2023-09-27T09:07:46.766Z,24.60
2023-09-27T09:10:15.359Z,24.70
2023-09-27T09:12:48.384Z,24.50
2023-09-27T09:15:41.555Z,24.70
2023-09-27T09:18:16.129Z,25.00
2023-09-27T09:20:55.876Z,25.30
2023-09-27T09:23:31.725Z,25.70
2023-09-27T09:26:00.339Z,25.30
2023-09-27T09:28:27.876Z,25.50
2023-09-27T09:30:57.504Z,25.50
2023-09-27T09:33:37.915Z,25.30
2023-09-27T09:36:05.208Z,25.40
2023-09-27T09:38:33.398Z,25.60
2023-09-27T09:41:03.525Z,25.70
2023-09-27T09:43:37.878Z,25.70
2023-09-27T09:46:10.222Z,25.80
2023-09-27T09:48:39.799Z,25.30
2023-09-27T09:51:09.068Z,25.40
2023-09-27T09:53:42.345Z,25.20
2023-09-27T09:58:48.288Z,24.70
2023-09-27T10:01:22.661Z,24.50
2023-09-27T10:03:52.719Z,24.10
2023-09-27T10:06:32.436Z,24.30
2023-09-27T10:09:16.137Z,23.80
2023-09-27T10:11:47.931Z,23.40
2023-09-27T10:14:17.710Z,23.20
2023-09-27T10:16:45.149Z,23.40
2023-09-27T10:19:14.615Z,23.50
2023-09-27T10:22:08.304Z,23.80
2023-09-27T10:24:38.600Z,24.30
2023-09-27T10:27:05.644Z,24.70
2023-09-27T10:29:32.814Z,25.30
2023-09-27T10:32:01.942Z,25.70
2023-09-27T10:34:29.170Z,26.10
2023-09-27T10:37:17.449Z,26.30
2023-09-27T10:40:30.414Z,26.40
2023-09-27T10:42:57.806Z,26.60
2023-09-27T10:45:25.756Z,26.50
2023-09-27T10:47:55.230Z,26.00
2023-09-27T10:50:30.973Z,25.70
2023-09-27T10:52:58.758Z,25.50
2023-09-27T10:55:25.649Z,25.60
2023-09-27T10:57:53.921Z,26.00
2023-09-27T11:00:22.635Z,26.40
2023-09-27T11:02:49.854Z,26.50
2023-09-27T11:05:25.724Z,26.60
2023-09-27T11:07:52.881Z,26.90
2023-09-27T11:10:31.021Z,27.10
2023-09-27T11:13:12.095Z,27.30
2023-09-27T11:15:40.173Z,27.40
2023-09-27T11:18:12.019Z,27.50
2023-09-27T11:20:41.106Z,27.50
2023-09-27T11:23:08.366Z,28.00
2023-09-27T11:25:37.733Z,28.10
2023-09-27T11:28:05.693Z,28.30
2023-09-27T11:30:35.052Z,28.60
2023-09-27T11:33:06.284Z,28.70
2023-09-27T11:35:33.532Z,29.00
2023-09-27T11:38:07.077Z,29.20
2023-09-27T11:40:35.026Z,29.10
2023-09-27T11:43:02.792Z,29.20
2023-09-27T11:45:48.138Z,29.30
2023-09-27T11:48:15.888Z,29.10
2023-09-27T11:50:43.159Z,28.90
2023-09-27T11:53:10.256Z,29.20
2023-09-27T11:55:37.289Z,29.30
2023-09-27T11:58:04.415Z,29.00
2023-09-27T12:00:31.736Z,29.00
2023-09-27T12:02:59.031Z,29.30
2023-09-27T12:05:28.801Z,29.20
2023-09-27T12:07:56.644Z,28.90
2023-09-27T12:10:23.595Z,29.50
2023-09-27T12:12:50.636Z,29.80
2023-09-27T12:15:17.647Z,29.70
2023-09-27T12:17:44.883Z,29.40
2023-09-27T12:20:26.794Z,29.60
2023-09-27T12:22:59.114Z,29.90
2023-09-27T12:25:28.270Z,30.00
2023-09-27T12:27:55.281Z,30.10
2023-09-27T12:30:22.186Z,30.50
2023-09-27T12:32:49.531Z,30.60
2023-09-27T12:35:16.500Z,30.70
2023-09-27T12:37:43.284Z,30.40
2023-09-27T12:40:10.660Z,30.10
2023-09-27T12:42:37.384Z,29.80
2023-09-27T12:45:04.875Z,30.30
2023-09-27T12:47:33.106Z,30.50
2023-09-27T12:50:04.463Z,30.80
2023-09-27T12:52:32.315Z,31.10
2023-09-27T12:54:59.269Z,31.50
2023-09-27T12:57:26.304Z,31.60
2023-09-27T12:59:53.127Z,31.90
2023-09-27T13:02:20.095Z,31.80
2023-09-27T13:04:47.104Z,32.10
2023-09-27T13:07:15.551Z,32.10
2023-09-27T13:09:43.180Z,32.30
2023-09-27T13:12:10.135Z,31.90
2023-09-27T13:14:37.005Z,32.30
2023-09-27T13:17:03.854Z,32.30
2023-09-27T13:19:32.641Z,32.40
2023-09-27T13:21:59.798Z,32.50
2023-09-27T13:24:26.896Z,32.10
2023-09-27T13:26:53.711Z,32.00
2023-09-27T13:29:20.712Z,31.70
2023-09-27T13:31:48.351Z,31.80
2023-09-27T13:34:15.693Z,32.10
2023-09-27T13:36:43.079Z,32.40
2023-09-27T13:39:18.531Z,32.60
2023-09-27T13:41:47.421Z,32.60
2023-09-27T13:44:14.678Z,32.50
2023-09-27T13:46:42.513Z,32.70
2023-09-27T13:49:09.796Z,32.60
2023-09-27T13:51:37.714Z,32.60
2023-09-27T13:54:06.274Z,32.60
2023-09-27T13:56:33.421Z,32.50
2023-09-27T13:59:00.519Z,32.60
2023-09-27T14:01:28.572Z,32.50
2023-09-27T14:03:55.504Z,32.50
2023-09-27T14:06:22.608Z,32.60
2023-09-27T14:08:49.687Z,32.70
2023-09-27T14:11:17.928Z,32.70
2023-09-27T14:13:46.444Z,32.90
2023-09-27T14:16:13.408Z,33.30
2023-09-27T14:18:40.469Z,33.40
2023-09-27T14:21:08.086Z,33.30
2023-09-27T14:23:36.803Z,33.50
2023-09-27T14:26:04.080Z,33.90
2023-09-27T14:28:31.035Z,33.90
2023-09-27T14:30:57.932Z,33.70
2023-09-27T14:33:25.078Z,33.50
2023-09-27T14:35:53.469Z,33.70
2023-09-27T14:38:21.387Z,33.70
2023-09-27T14:40:48.748Z,33.50
2023-09-27T14:43:15.565Z,33.30
2023-09-27T14:45:42.732Z,33.10
2023-09-27T14:48:11.315Z,33.30
2023-09-27T14:50:38.550Z,33.40
2023-09-27T14:53:05.795Z,33.30
2023-09-27T14:55:32.788Z,33.20
2023-09-27T14:58:00.098Z,33.10
2023-09-27T15:00:27.233Z,32.80
2023-09-27T15:02:55.151Z,32.80
2023-09-27T15:05:22.514Z,32.10
2023-09-27T15:07:50.230Z,31.60
2023-09-27T15:10:17.115Z,31.40
2023-09-27T15:12:44.291Z,31.40
2023-09-27T15:15:12.792Z,31.20
2023-09-27T15:17:41.169Z,31.20
2023-09-27T15:20:09.296Z,31.20
2023-09-27T15:22:36.375Z,30.90
2023-09-27T15:25:04.427Z,30.50
2023-09-27T15:27:31.366Z,30.20
2023-09-27T15:29:58.202Z,30.00
2023-09-27T15:32:25.143Z,29.90
2023-09-27T15:34:52.199Z,29.80
2023-09-27T15:37:19.028Z,29.70
2023-09-27T15:39:45.766Z,29.70
2023-09-27T15:42:12.698Z,29.60
2023-09-27T15:44:40.061Z,29.50
2023-09-27T15:47:07.307Z,29.30
2023-09-27T15:49:34.243Z,29.20
2023-09-27T15:52:01.024Z,29.30
2023-09-27T15:54:27.708Z,29.60
2023-09-27T15:56:54.560Z,30.00
2023-09-27T15:59:21.518Z,30.50
2023-09-27T16:01:48.376Z,31.00
2023-09-27T16:04:15.314Z,31.30
2023-09-27T16:06:43.527Z,31.10
2023-09-27T16:09:12.005Z,30.90
2023-09-27T16:11:40.019Z,30.80
2023-09-27T16:14:07.769Z,30.90
2023-09-27T16:16:37.342Z,30.80
2023-09-27T16:19:04.495Z,30.30
2023-09-27T16:21:31.233Z,30.00
2023-09-27T16:23:58.453Z,29.30
2023-09-27T16:26:25.528Z,29.00
2023-09-27T16:28:52.561Z,28.60
2023-09-27T16:31:20.073Z,28.30
2023-09-27T16:33:48.052Z,27.80
2023-09-27T16:36:18.416Z,27.60
2023-09-27T16:38:45.651Z,27.30
2023-09-27T16:41:12.533Z,27.00
2023-09-27T16:43:50.692Z,26.90
2023-09-27T16:46:17.637Z,26.50
2023-09-27T16:48:44.421Z,26.30
2023-09-27T16:51:11.765Z,26.10
2023-09-27T16:53:38.578Z,25.90
2023-09-27T16:56:05.697Z,25.80
2023-09-27T16:58:33.056Z,25.60
2023-09-27T17:01:02.270Z,25.40
2023-09-27T17:03:29.244Z,25.10
2023-09-27T17:05:56.578Z,25.00
2023-09-27T17:08:23.538Z,24.80
2023-09-27T17:10:50.899Z,24.70
2023-09-27T17:13:18.853Z,24.40
2023-09-27T17:15:45.671Z,24.20
2023-09-27T17:18:12.513Z,24.10
2023-09-27T17:20:39.334Z,23.90
2023-09-27T17:23:06.099Z,23.80
2023-09-27T17:25:33.054Z,23.70
2023-09-27T17:27:59.879Z,23.60
2023-09-27T17:30:26.721Z,23.40
2023-09-27T17:32:53.618Z,23.30
2023-09-27T17:35:21.912Z,23.10
2023-09-27T17:37:48.732Z,23.00
2023-09-27T17:40:15.691Z,22.90
2023-09-27T17:42:43.655Z,22.80
2023-09-27T17:45:10.539Z,22.70
2023-09-27T17:47:37.411Z,22.50
2023-09-27T17:50:04.554Z,22.40
2023-09-27T17:52:31.405Z,22.30
2023-09-27T17:54:58.373Z,22.20
2023-09-27T17:57:25.647Z,22.10
2023-09-27T17:59:52.894Z,22.00
2023-09-27T18:02:21.641Z,21.80
2023-09-27T18:04:48.454Z,21.70
2023-09-27T18:07:15.428Z,21.60
2023-09-27T18:09:42.124Z,21.50
2023-09-27T18:12:09.019Z,21.40
2023-09-27T18:14:37.381Z,21.40
2023-09-27T18:17:04.406Z,21.30
2023-09-27T18:19:31.277Z,21.20
2023-09-27T18:21:58.356Z,21.10
2023-09-27T18:24:25.520Z,21.00
2023-09-27T18:26:52.525Z,21.00
2023-09-27T18:29:19.475Z,20.90
2023-09-27T18:31:46.648Z,20.80
2023-09-27T18:34:14.883Z,20.70
2023-09-27T18:36:41.851Z,20.60
2023-09-27T18:39:08.664Z,20.60
2023-09-27T18:41:35.608Z,20.60
2023-09-27T18:44:04.486Z,20.50
2023-09-27T18:46:32.586Z,20.40
2023-09-27T18:48:59.525Z,20.30
2023-09-27T18:51:26.552Z,20.20
2023-09-27T18:53:54.373Z,20.20
2023-09-27T18:56:23.438Z,20.20
2023-09-27T18:58:50.658Z,20.30
2023-09-27T19:01:17.794Z,20.10
2023-09-27T19:03:45.477Z,20.00
2023-09-27T19:06:15.618Z,19.80
2023-09-27T19:08:42.702Z,19.80
2023-09-27T19:11:09.964Z,19.70
2023-09-27T19:13:37.675Z,19.60
2023-09-27T19:16:06.659Z,19.50
2023-09-27T19:18:34.040Z,19.50
2023-09-27T19:21:01.026Z,19.50
2023-09-27T19:23:28.275Z,19.40
2023-09-27T19:25:55.791Z,19.40
2023-09-27T19:28:23.005Z,19.30
2023-09-27T19:30:51.037Z,19.30
2023-09-27T19:33:18.081Z,19.20
2023-09-27T19:35:46.095Z,19.20
2023-09-27T19:38:13.304Z,19.10
2023-09-27T19:40:40.588Z,19.00
2023-09-27T19:43:07.354Z,19.00
2023-09-27T19:45:34.560Z,18.90
2023-09-27T19:48:01.941Z,18.80
2023-09-27T19:50:28.776Z,18.90
2023-09-27T19:52:55.957Z,18.90
2023-09-27T19:55:23.069Z,18.80
2023-09-27T19:57:50.247Z,18.80
2023-09-27T20:00:19.102Z,18.60
2023-09-27T20:02:46.573Z,18.60
2023-09-27T20:05:16.461Z,18.50
2023-09-27T20:07:47.216Z,18.50
2023-09-27T20:10:18.191Z,18.40
2023-09-27T20:12:45.071Z,18.30
2023-09-27T20:15:13.419Z,18.30
2023-09-27T20:17:40.680Z,18.20
2023-09-27T20:20:08.807Z,18.20
2023-09-27T20:22:35.913Z,18.10
2023-09-27T20:25:04.444Z,18.00
2023-09-27T20:27:31.502Z,18.00
2023-09-27T20:29:58.511Z,18.10
2023-09-27T20:32:25.514Z,17.90
2023-09-27T20:34:53.539Z,17.90
2023-09-27T20:37:21.038Z,17.80
2023-09-27T20:39:47.986Z,17.90
2023-09-27T20:42:15.898Z,17.90
2023-09-27T20:44:42.880Z,17.90
2023-09-27T20:47:09.893Z,17.80
2023-09-27T20:49:37.050Z,17.80
2023-09-27T20:52:04.293Z,17.90
2023-09-27T20:54:31.064Z,17.80
2023-09-27T20:56:58.186Z,17.80
2023-09-27T20:59:25.594Z,17.70
2023-09-27T21:01:53.472Z,17.60
2023-09-27T21:04:21.465Z,17.60
2023-09-27T21:06:50.204Z,17.60
2023-09-27T21:09:17.094Z,17.50
2023-09-27T21:11:43.967Z,17.40
2023-09-27T21:14:11.046Z,17.40
2023-09-27T21:16:38.359Z,17.30
2023-09-27T21:19:05.196Z,17.40
2023-09-27T21:21:33.210Z,17.30
2023-09-27T21:24:00.125Z,17.20
2023-09-27T21:26:28.022Z,17.20
2023-09-27T21:28:55.329Z,17.20
2023-09-27T21:31:24.867Z,17.30
2023-09-27T21:33:52.235Z,17.40
2023-09-27T21:36:19.456Z,17.40
2023-09-27T21:38:46.406Z,17.30
2023-09-27T21:41:13.458Z,17.20
2023-09-27T21:43:40.469Z,17.10
2023-09-27T21:46:20.642Z,17.00
2023-09-27T21:48:49.190Z,17.00
2023-09-27T21:51:17.025Z,17.00
2023-09-27T21:53:44.162Z,17.00
2023-09-27T21:56:11.688Z,16.90
2023-09-27T21:58:38.749Z,16.90
2023-09-27T22:01:11.339Z,16.90
2023-09-27T22:03:38.804Z,16.90
2023-09-27T22:06:09.897Z,16.80
2023-09-27T22:08:36.809Z,16.80
2023-09-27T22:11:06.476Z,16.80
2023-09-27T22:13:39.639Z,16.80
2023-09-27T22:16:11.416Z,16.80
2023-09-27T22:18:39.960Z,16.80
2023-09-27T22:21:18.861Z,16.80
2023-09-27T22:23:47.160Z,16.80
2023-09-27T22:26:18.959Z,16.70
2023-09-27T22:28:48.567Z,16.70
2023-09-27T22:34:41.160Z,16.60
2023-09-27T22:37:09.391Z,16.60
2023-09-27T22:39:41.197Z,16.50
2023-09-27T22:45:31.520Z,16.40
2023-09-27T22:47:59.916Z,16.40
2023-09-27T22:50:45.477Z,16.40
2023-09-27T22:53:14.571Z,16.40
2023-09-27T22:55:51.227Z,16.40
2023-09-27T22:58:23.248Z,16.30
2023-09-27T23:00:58.634Z,16.20
2023-09-27T23:03:30.989Z,16.20
2023-09-27T23:05:58.686Z,16.20
2023-09-27T23:08:28.849Z,16.20
2023-09-27T23:10:58.142Z,16.20
2023-09-27T23:13:36.675Z,16.20
2023-09-27T23:16:24.734Z,16.20
2023-09-27T23:18:52.444Z,16.20
2023-09-27T23:21:31.386Z,16.20
2023-09-27T23:24:00.615Z,16.30
2023-09-27T23:26:50.354Z,16.30
2023-09-27T23:29:29.377Z,16.30
2023-09-27T23:31:59.903Z,16.20
2023-09-27T23:34:28.319Z,16.20
2023-09-27T23:37:13.634Z,16.10
2023-09-27T23:39:44.730Z,16.10
2023-09-27T23:42:24.617Z,16.10
2023-09-27T23:45:12.559Z,16.00
2023-09-27T23:47:45.746Z,16.00
2023-09-27T23:50:17.972Z,16.10
2023-09-27T23:52:47.735Z,16.10
2023-09-27T23:55:16.766Z,16.10
2023-09-27T23:57:53.601Z,16.10
